createdAt,value
2023-04-17T00:01:16.781Z,8.85
2023-04-17T00:03:45.549Z,8.85
2023-04-17T00:06:17.561Z,8.82
2023-04-17T00:08:51.251Z,8.74
2023-04-17T00:11:30.630Z,8.66
2023-04-17T00:14:05.714Z,8.65
2023-04-17T00:16:33.033Z,8.63
2023-04-17T00:19:09.974Z,8.57
2023-04-17T00:21:40.530Z,8.65
2023-04-17T00:24:17.020Z,8.75
2023-04-17T00:26:43.884Z,8.72
2023-04-17T00:29:11.497Z,8.66
2023-04-17T00:34:38.159Z,8.47
2023-04-17T00:37:06.114Z,8.45
2023-04-17T00:42:48.578Z,8.49
2023-04-17T00:45:22.916Z,8.51
2023-04-17T00:47:57.008Z,8.45
2023-04-17T00:50:34.146Z,8.48
2023-04-17T00:53:02.246Z,8.54
2023-04-17T00:55:32.584Z,8.54
2023-04-17T00:58:03.306Z,8.54
2023-04-17T01:00:31.045Z,8.59
2023-04-17T01:03:07.001Z,8.62
2023-04-17T01:05:39.663Z,8.47
2023-04-17T01:10:51.992Z,8.29
2023-04-17T01:13:27.487Z,8.35
2023-04-17T01:16:03.893Z,8.24
2023-04-17T01:18:36.957Z,8.20
2023-04-17T01:21:11.070Z,8.19
2023-04-17T01:23:52.430Z,8.23
2023-04-17T01:26:24.991Z,8.21
2023-04-17T01:29:12.792Z,8.20
2023-04-17T01:31:54.604Z,8.23
2023-04-17T01:34:37.298Z,8.13
2023-04-17T01:37:09.393Z,8.12
2023-04-17T01:39:50.172Z,8.09
2023-04-17T01:42:25.020Z,8.04
2023-04-17T01:44:53.467Z,7.98
2023-04-17T01:47:25.378Z,8.01
2023-04-17T01:49:59.006Z,8.03
2023-04-17T01:52:26.791Z,7.98
2023-04-17T01:54:54.666Z,7.92
2023-04-17T01:57:22.462Z,7.95
2023-04-17T02:00:01.950Z,8.01
2023-04-17T02:02:36.179Z,8.00
2023-04-17T02:05:03.524Z,7.96
2023-04-17T02:07:40.096Z,7.96
2023-04-17T02:10:08.634Z,8.05
2023-04-17T02:15:42.265Z,7.92
2023-04-17T02:18:13.234Z,7.89
2023-04-17T02:20:40.923Z,7.96
2023-04-17T02:23:14.743Z,7.96
2023-04-17T02:25:57.937Z,7.80
2023-04-17T02:28:31.411Z,7.73
2023-04-17T02:31:04.286Z,7.73
2023-04-17T02:33:35.049Z,7.71
2023-04-17T02:36:34.485Z,7.70
2023-04-17T02:39:03.091Z,7.76
2023-04-17T02:41:36.576Z,7.72
2023-04-17T02:44:06.842Z,7.73
2023-04-17T02:46:36.951Z,7.59
2023-04-17T02:49:06.726Z,7.57
2023-04-17T02:51:52.001Z,7.64
2023-04-17T02:54:28.846Z,7.58
2023-04-17T02:57:04.026Z,7.57
2023-04-17T02:59:44.002Z,7.58
2023-04-17T03:02:21.197Z,7.52
2023-04-17T03:04:57.788Z,7.48
2023-04-17T03:08:04.701Z,7.53
2023-04-17T03:10:54.217Z,7.54
2023-04-17T03:13:22.082Z,7.70
2023-04-17T03:15:49.740Z,7.64
2023-04-17T03:18:18.588Z,7.68
2023-04-17T03:20:46.056Z,7.73
2023-04-17T03:23:13.058Z,7.73
2023-04-17T03:25:46.201Z,7.76
2023-04-17T03:28:13.109Z,7.82
2023-04-17T03:30:39.947Z,7.90
2023-04-17T03:33:06.944Z,7.98
2023-04-17T03:35:39.212Z,8.03
2023-04-17T03:38:22.013Z,8.00
2023-04-17T03:43:59.094Z,8.15
2023-04-17T03:46:48.125Z,8.07
2023-04-17T03:52:24.129Z,8.08
2023-04-17T03:54:51.109Z,8.09
2023-04-17T03:57:18.189Z,8.07
2023-04-17T03:59:45.800Z,8.09
2023-04-17T04:02:13.068Z,8.20
2023-04-17T04:04:40.391Z,8.18
2023-04-17T04:07:07.314Z,8.21
2023-04-17T04:09:36.607Z,8.25
2023-04-17T04:12:03.395Z,8.33
2023-04-17T04:14:30.657Z,8.35
2023-04-17T04:16:57.566Z,8.36
2023-04-17T04:19:24.473Z,8.42
2023-04-17T04:21:53.855Z,8.50
2023-04-17T04:24:20.609Z,8.56
2023-04-17T04:26:49.912Z,8.65
2023-04-17T04:29:17.071Z,8.70
2023-04-17T04:31:46.794Z,8.73
2023-04-17T04:34:13.630Z,8.70
2023-04-17T04:36:50.081Z,8.72
2023-04-17T04:39:20.919Z,8.77
2023-04-17T04:41:51.547Z,8.82
2023-04-17T04:44:19.202Z,8.77
2023-04-17T04:46:46.879Z,8.87
2023-04-17T04:49:17.341Z,8.89
2023-04-17T04:51:45.055Z,8.85
2023-04-17T04:54:22.487Z,8.89
2023-04-17T04:56:53.219Z,8.90
2023-04-17T04:59:21.134Z,8.91
2023-04-17T05:01:48.076Z,8.82
2023-04-17T05:04:33.534Z,8.81
2023-04-17T05:07:08.556Z,8.80
2023-04-17T05:09:46.499Z,8.86
2023-04-17T05:12:13.553Z,8.90
2023-04-17T05:14:41.226Z,8.97
2023-04-17T05:17:08.797Z,8.99
2023-04-17T05:19:35.662Z,8.99
2023-04-17T05:22:02.401Z,9.03
2023-04-17T05:24:32.639Z,9.09
2023-04-17T05:27:02.232Z,9.23
2023-04-17T05:29:29.058Z,9.31
2023-04-17T05:31:56.062Z,9.38
2023-04-17T05:34:22.915Z,9.47
2023-04-17T05:36:50.139Z,9.42
2023-04-17T05:39:18.568Z,9.49
2023-04-17T05:41:45.829Z,9.42
2023-04-17T05:44:15.804Z,9.40
2023-04-17T05:46:57.041Z,9.37
2023-04-17T05:49:23.986Z,9.42
2023-04-17T05:51:50.829Z,9.42
2023-04-17T05:54:17.947Z,9.53
2023-04-17T05:56:44.710Z,9.52
2023-04-17T05:59:11.925Z,9.54
2023-04-17T06:01:39.702Z,9.61
2023-04-17T06:04:12.271Z,9.66
2023-04-17T06:06:39.331Z,9.71
2023-04-17T06:09:16.957Z,9.75
2023-04-17T06:11:49.565Z,9.85
2023-04-17T06:14:16.865Z,9.96
2023-04-17T06:16:43.921Z,9.91
2023-04-17T06:19:11.554Z,9.89
2023-04-17T06:21:38.376Z,9.94
2023-04-17T06:24:48.717Z,10.00
2023-04-17T06:27:16.798Z,10.00
2023-04-17T06:29:46.870Z,10.01
2023-04-17T06:32:17.671Z,9.97
2023-04-17T06:34:58.495Z,9.91
2023-04-17T06:37:26.631Z,9.94
2023-04-17T06:39:56.852Z,9.97
2023-04-17T06:42:28.034Z,9.92
2023-04-17T06:45:49.889Z,10.00
2023-04-17T06:48:20.639Z,10.00
2023-04-17T06:50:51.627Z,9.97
2023-04-17T06:53:49.257Z,9.92
2023-04-17T06:56:30.781Z,9.93
2023-04-17T06:59:02.906Z,9.95
2023-04-17T07:01:40.748Z,9.95
2023-04-17T07:04:08.855Z,9.88
2023-04-17T07:06:37.566Z,9.88
2023-04-17T07:09:10.531Z,9.94
2023-04-17T07:11:39.932Z,9.95
2023-04-17T07:14:07.358Z,10.05
2023-04-17T07:16:43.211Z,10.15
2023-04-17T07:19:10.819Z,10.27
2023-04-17T07:21:59.386Z,10.33
2023-04-17T07:24:27.836Z,10.36
2023-04-17T07:27:01.950Z,10.43
2023-04-17T07:29:29.344Z,10.55
2023-04-17T07:31:57.328Z,10.64
2023-04-17T07:34:49.512Z,10.65
2023-04-17T07:37:16.642Z,10.78
2023-04-17T07:39:43.657Z,10.85
2023-04-17T07:42:16.907Z,10.98
2023-04-17T07:44:43.898Z,11.09
2023-04-17T07:47:11.408Z,11.23
2023-04-17T07:49:41.278Z,11.40
2023-04-17T07:52:08.180Z,11.54
2023-04-17T07:54:35.239Z,11.69
2023-04-17T07:57:11.239Z,11.87
2023-04-17T07:59:44.092Z,12.11
2023-04-17T08:02:13.303Z,12.26
2023-04-17T08:04:40.891Z,12.33
2023-04-17T08:07:13.034Z,12.42
2023-04-17T08:09:42.560Z,12.45
2023-04-17T08:12:10.862Z,12.47
2023-04-17T08:14:39.184Z,12.48
2023-04-17T08:17:07.691Z,12.44
2023-04-17T08:19:38.726Z,12.43
2023-04-17T08:22:06.364Z,12.41
2023-04-17T08:24:33.666Z,12.34
2023-04-17T08:27:06.681Z,12.36
2023-04-17T08:29:33.737Z,12.31
2023-04-17T08:32:14.114Z,12.40
2023-04-17T08:34:46.249Z,12.46
2023-04-17T08:37:13.201Z,12.48
2023-04-17T08:39:39.970Z,12.54
2023-04-17T08:42:15.840Z,12.56
2023-04-17T08:44:44.552Z,12.69
2023-04-17T08:47:13.242Z,12.71
2023-04-17T08:49:44.073Z,12.78
2023-04-17T08:52:11.440Z,12.90
2023-04-17T08:54:39.187Z,12.87
2023-04-17T08:57:08.986Z,12.93
2023-04-17T08:59:36.025Z,12.98
2023-04-17T09:02:08.293Z,12.93
2023-04-17T09:04:44.162Z,12.90
2023-04-17T09:07:13.628Z,12.85
2023-04-17T09:10:00.845Z,12.77
2023-04-17T09:15:18.088Z,12.57
2023-04-17T09:17:48.972Z,12.55
2023-04-17T09:20:17.599Z,12.63
2023-04-17T09:22:47.703Z,12.50
2023-04-17T09:25:29.105Z,12.52
2023-04-17T09:31:07.140Z,12.40
2023-04-17T09:33:37.768Z,12.38
2023-04-17T09:36:24.088Z,12.37
2023-04-17T09:38:57.634Z,12.43
2023-04-17T09:44:29.079Z,12.57
2023-04-17T09:47:13.489Z,12.73
2023-04-17T09:50:05.125Z,12.72
2023-04-17T09:52:32.942Z,12.84
2023-04-17T09:55:25.260Z,12.98
2023-04-17T09:57:55.084Z,13.21
2023-04-17T10:00:25.912Z,13.34
2023-04-17T10:02:53.664Z,13.44
2023-04-17T10:05:21.228Z,13.57
2023-04-17T10:07:55.534Z,13.60
2023-04-17T10:10:35.124Z,13.63
2023-04-17T10:13:04.386Z,13.67
2023-04-17T10:15:32.717Z,13.67
2023-04-17T10:18:19.741Z,13.77
2023-04-17T10:20:48.552Z,13.89
2023-04-17T10:23:41.495Z,13.84
2023-04-17T10:26:30.290Z,13.84
2023-04-17T10:29:02.350Z,13.86
2023-04-17T10:32:07.472Z,13.93
2023-04-17T10:34:39.298Z,13.75
2023-04-17T10:37:16.953Z,13.56
2023-04-17T10:40:01.834Z,13.33
2023-04-17T10:42:33.622Z,13.22
2023-04-17T10:45:07.130Z,13.28
2023-04-17T10:47:36.995Z,13.32
2023-04-17T10:50:09.147Z,13.40
2023-04-17T10:52:58.319Z,13.26
2023-04-17T10:55:30.787Z,13.30
2023-04-17T10:58:14.411Z,13.38
2023-04-17T11:01:02.603Z,13.37
2023-04-17T11:03:38.250Z,13.40
2023-04-17T11:06:13.474Z,13.33
2023-04-17T11:08:50.662Z,13.43
2023-04-17T11:11:35.312Z,13.41
2023-04-17T11:14:14.194Z,13.45
2023-04-17T11:16:43.443Z,13.54
2023-04-17T11:19:14.996Z,13.57
2023-04-17T11:21:51.993Z,13.48
2023-04-17T11:24:29.094Z,13.36
2023-04-17T11:26:59.748Z,13.48
2023-04-17T11:29:27.397Z,13.52
2023-04-17T11:31:56.585Z,13.59
2023-04-17T11:34:25.559Z,13.50
2023-04-17T11:36:57.738Z,13.67
2023-04-17T11:39:30.017Z,13.66
2023-04-17T11:41:57.376Z,13.71
2023-04-17T11:44:25.196Z,13.68
2023-04-17T11:46:52.682Z,13.67
2023-04-17T11:49:28.848Z,13.69
2023-04-17T11:51:59.338Z,13.66
2023-04-17T11:54:30.215Z,13.58
2023-04-17T11:57:12.773Z,13.57
2023-04-17T11:59:42.218Z,13.50
2023-04-17T12:02:10.242Z,13.53
2023-04-17T12:04:40.095Z,13.52
2023-04-17T12:07:08.753Z,13.52
2023-04-17T12:09:36.831Z,13.55
2023-04-17T12:12:08.263Z,13.45
2023-04-17T12:18:17.121Z,13.68
2023-04-17T12:20:44.802Z,13.68
2023-04-17T12:23:11.991Z,13.60
2023-04-17T12:25:39.558Z,13.61
2023-04-17T12:28:09.476Z,13.59
2023-04-17T12:30:40.026Z,13.60
2023-04-17T12:33:07.523Z,13.49
2023-04-17T12:35:34.562Z,13.45
2023-04-17T12:38:01.865Z,13.40
2023-04-17T12:40:28.730Z,13.40
2023-04-17T12:42:58.127Z,13.46
2023-04-17T12:45:28.402Z,13.46
2023-04-17T12:47:57.453Z,13.48
2023-04-17T12:50:25.328Z,13.47
2023-04-17T12:52:51.960Z,13.50
2023-04-17T12:55:21.236Z,13.40
2023-04-17T12:57:51.164Z,13.32
2023-04-17T13:00:18.813Z,13.28
2023-04-17T13:02:45.930Z,13.15
2023-04-17T13:05:13.241Z,13.11
2023-04-17T13:07:40.043Z,13.03
2023-04-17T13:10:07.675Z,12.94
2023-04-17T13:12:34.517Z,12.90
2023-04-17T13:15:01.417Z,12.86
2023-04-17T13:17:28.283Z,12.90
2023-04-17T13:19:55.347Z,12.94
2023-04-17T13:22:22.326Z,13.00
2023-04-17T13:24:49.222Z,12.91
2023-04-17T13:27:16.781Z,12.94
2023-04-17T13:29:44.062Z,12.82
2023-04-17T13:32:23.418Z,12.78
2023-04-17T13:34:53.861Z,12.71
2023-04-17T13:37:24.711Z,12.66
2023-04-17T13:39:51.966Z,12.73
2023-04-17T13:42:19.614Z,12.77
2023-04-17T13:44:46.940Z,12.81
2023-04-17T13:47:13.884Z,12.79
2023-04-17T13:49:41.128Z,12.85
2023-04-17T13:52:08.082Z,12.93
2023-04-17T13:54:35.003Z,12.94
2023-04-17T13:57:05.060Z,12.94
2023-04-17T13:59:32.117Z,13.00
2023-04-17T14:02:01.624Z,13.01
2023-04-17T14:04:32.202Z,13.02
2023-04-17T14:06:59.688Z,13.00
2023-04-17T14:09:27.542Z,13.10
2023-04-17T14:11:54.294Z,13.10
2023-04-17T14:14:21.585Z,13.11
2023-04-17T14:16:49.894Z,13.09
2023-04-17T14:19:20.809Z,13.01
2023-04-17T14:22:20.339Z,12.89
2023-04-17T14:28:15.296Z,12.66
2023-04-17T14:30:42.605Z,12.60
2023-04-17T14:33:17.464Z,12.58
2023-04-17T14:35:50.598Z,12.55
2023-04-17T14:38:18.260Z,12.58
2023-04-17T14:40:59.819Z,12.57
2023-04-17T14:43:27.390Z,12.58
2023-04-17T14:45:54.439Z,12.63
2023-04-17T14:48:24.483Z,12.60
2023-04-17T14:50:51.765Z,12.52
2023-04-17T14:53:22.070Z,12.50
2023-04-17T14:55:48.924Z,12.50
2023-04-17T14:58:16.317Z,12.54
2023-04-17T15:00:45.893Z,12.59
2023-04-17T15:03:13.606Z,12.67
2023-04-17T15:05:42.225Z,12.65
2023-04-17T15:08:09.628Z,12.55
2023-04-17T15:10:50.746Z,12.58
2023-04-17T15:13:18.432Z,12.53
2023-04-17T15:15:45.103Z,12.56
2023-04-17T15:18:12.029Z,12.55
2023-04-17T15:20:39.215Z,12.46
2023-04-17T15:23:09.161Z,12.37
2023-04-17T15:25:35.984Z,12.29
2023-04-17T15:28:03.290Z,12.23
2023-04-17T15:30:30.366Z,12.24
2023-04-17T15:32:57.632Z,12.28
2023-04-17T15:35:24.846Z,12.30
2023-04-17T15:37:51.784Z,12.31
2023-04-17T15:40:24.961Z,12.28
2023-04-17T15:42:58.120Z,12.17
2023-04-17T15:45:35.049Z,12.08
2023-04-17T15:50:55.769Z,12.04
2023-04-17T15:53:26.969Z,11.99
2023-04-17T15:56:02.724Z,11.98
2023-04-17T15:58:34.030Z,11.98
2023-04-17T16:01:42.959Z,11.99
2023-04-17T16:04:06.521Z,12.02
2023-04-17T16:07:20.462Z,12.07
2023-04-17T16:13:50.430Z,12.06
2023-04-17T16:17:12.518Z,12.08
2023-04-17T16:22:35.969Z,11.97
2023-04-17T16:25:20.293Z,11.90
2023-04-17T16:27:55.307Z,11.82
2023-04-17T16:30:27.638Z,11.85
2023-04-17T16:32:54.560Z,11.90
2023-04-17T16:35:43.546Z,11.91
2023-04-17T16:38:11.274Z,11.89
2023-04-17T16:40:41.738Z,11.92
2023-04-17T16:43:09.583Z,11.99
2023-04-17T16:45:42.648Z,11.99
2023-04-17T16:48:13.333Z,11.97
2023-04-17T16:50:41.638Z,11.90
2023-04-17T16:53:20.161Z,11.89
2023-04-17T16:55:48.971Z,11.85
2023-04-17T16:58:22.658Z,11.83
2023-04-17T17:01:01.285Z,11.81
2023-04-17T17:03:29.012Z,11.78
2023-04-17T17:05:58.296Z,11.78
2023-04-17T17:08:29.635Z,11.78
2023-04-17T17:10:57.830Z,11.73
2023-04-17T17:13:31.824Z,11.73
2023-04-17T17:15:59.137Z,11.71
2023-04-17T17:18:26.369Z,11.71
2023-04-17T17:20:59.195Z,11.72
2023-04-17T17:23:50.373Z,11.72
2023-04-17T17:26:26.256Z,11.73
2023-04-17T17:29:22.855Z,11.70
2023-04-17T17:31:58.833Z,11.70
2023-04-17T17:34:36.573Z,11.67
2023-04-17T17:37:07.488Z,11.61
2023-04-17T17:39:42.074Z,11.60
2023-04-17T17:42:12.312Z,11.57
2023-04-17T17:44:39.985Z,11.53
2023-04-17T17:47:11.357Z,11.52
2023-04-17T17:50:40.517Z,11.53
2023-04-17T17:53:03.057Z,11.51
2023-04-17T17:56:22.751Z,11.52
2023-04-17T17:58:54.112Z,11.49
2023-04-17T18:01:56.303Z,11.48
2023-04-17T18:04:34.165Z,11.42
2023-04-17T18:07:11.615Z,11.44
2023-04-17T18:09:42.050Z,11.39
2023-04-17T18:12:35.284Z,11.40
2023-04-17T18:18:59.838Z,11.30
2023-04-17T18:22:01.365Z,11.29
2023-04-17T18:25:37.893Z,11.26
2023-04-17T18:31:47.923Z,11.22
2023-04-17T18:34:15.139Z,11.19
2023-04-17T18:40:14.218Z,11.17
2023-04-17T18:43:12.737Z,11.09
2023-04-17T18:45:40.142Z,10.99
2023-04-17T18:52:03.679Z,11.00
2023-04-17T18:57:47.768Z,10.90
2023-04-17T19:00:51.907Z,10.93
2023-04-17T19:06:41.765Z,10.96
2023-04-17T19:09:30.708Z,10.94
2023-04-17T19:12:00.880Z,10.97
2023-04-17T19:14:48.209Z,10.98
2023-04-17T19:17:54.687Z,11.05
2023-04-17T19:21:21.901Z,11.02
2023-04-17T19:24:26.022Z,10.98
2023-04-17T19:27:59.048Z,10.90
2023-04-17T19:30:56.619Z,10.84
2023-04-17T19:37:07.040Z,10.67
2023-04-17T19:40:24.393Z,10.69
2023-04-17T19:43:18.622Z,10.59
2023-04-17T19:45:52.851Z,10.62
2023-04-17T19:49:01.327Z,10.59
2023-04-17T19:51:39.098Z,10.60
2023-04-17T19:54:12.595Z,10.64
2023-04-17T19:57:16.649Z,10.65
2023-04-17T20:00:07.432Z,10.71
2023-04-17T20:02:38.577Z,10.73
2023-04-17T20:07:57.444Z,10.69
2023-04-17T20:10:34.647Z,10.65
2023-04-17T20:13:19.040Z,10.65
2023-04-17T20:16:19.939Z,10.67
2023-04-17T20:25:01.587Z,10.60
2023-04-17T20:27:49.583Z,10.66
2023-04-17T20:30:44.639Z,10.64
2023-04-17T20:33:22.900Z,10.58
2023-04-17T20:39:06.066Z,10.54
2023-04-17T20:41:32.245Z,10.50
2023-04-17T20:44:19.762Z,10.47
2023-04-17T20:46:59.184Z,10.47
2023-04-17T20:50:06.518Z,10.43
2023-04-17T20:53:14.105Z,10.41
2023-04-17T20:58:54.140Z,10.34
2023-04-17T21:04:26.005Z,10.31
2023-04-17T21:07:20.093Z,10.26
2023-04-17T21:10:06.196Z,10.30
2023-04-17T21:12:54.145Z,10.29
2023-04-17T21:15:24.145Z,10.33
2023-04-17T21:18:13.459Z,10.34
2023-04-17T21:21:21.135Z,10.41
2023-04-17T21:24:04.524Z,10.38
2023-04-17T21:29:56.800Z,10.29
2023-04-17T21:32:36.199Z,10.35
2023-04-17T21:35:31.220Z,10.29
2023-04-17T21:41:09.237Z,10.28
2023-04-17T21:46:23.772Z,10.29
2023-04-17T21:49:02.312Z,10.26
2023-04-17T21:51:45.351Z,10.25
2023-04-17T21:54:37.154Z,10.31
2023-04-17T21:57:19.028Z,10.34
2023-04-17T21:59:59.980Z,10.34
2023-04-17T22:02:33.775Z,10.44
2023-04-17T22:05:13.084Z,10.33
2023-04-17T22:07:54.424Z,10.32
2023-04-17T22:13:31.071Z,10.33
2023-04-17T22:19:07.280Z,10.37
2023-04-17T22:21:41.616Z,10.29
2023-04-17T22:24:21.723Z,10.24
2023-04-17T22:27:15.928Z,10.29
2023-04-17T22:30:06.635Z,10.40
2023-04-17T22:32:41.178Z,10.31
2023-04-17T22:35:17.860Z,10.31
2023-04-17T22:38:02.297Z,10.34
2023-04-17T22:40:42.340Z,10.37
2023-04-17T22:43:12.263Z,10.32
2023-04-17T22:46:06.186Z,10.30
2023-04-17T22:49:11.579Z,10.38
2023-04-17T22:58:14.383Z,10.31
2023-04-17T23:00:50.306Z,10.20
2023-04-17T23:03:47.627Z,10.22
2023-04-17T23:06:23.948Z,10.15
2023-04-17T23:09:12.638Z,10.17
2023-04-17T23:11:58.249Z,10.16
2023-04-17T23:14:48.140Z,10.15
2023-04-17T23:17:43.526Z,10.13
2023-04-17T23:23:02.877Z,10.11
2023-04-17T23:25:39.415Z,10.20
2023-04-17T23:28:53.700Z,10.16
2023-04-17T23:31:38.417Z,10.10
2023-04-17T23:34:15.910Z,10.08
2023-04-17T23:36:58.112Z,10.01
2023-04-17T23:39:39.688Z,9.90
2023-04-17T23:42:34.190Z,9.82
2023-04-17T23:45:15.263Z,9.83
2023-04-17T23:48:12.979Z,9.79
2023-04-17T23:51:07.614Z,9.71
2023-04-17T23:53:34.835Z,9.64
2023-04-17T23:56:10.101Z,9.68
